createdAt,value
2019-04-20T00:01:07.450Z,26.02
2019-04-20T00:03:41.747Z,26.15
2019-04-20T00:06:11.098Z,26.37
2019-04-20T00:08:42.792Z,27.10
2019-04-20T00:11:18.481Z,26.02
2019-04-20T00:13:52.536Z,27.20
2019-04-20T00:16:16.858Z,27.40
2019-04-20T00:18:52.975Z,26.80
2019-04-20T00:21:42.727Z,26.82
2019-04-20T00:24:31.059Z,27.22
2019-04-20T00:27:19.282Z,28.23
2019-04-20T00:29:49.881Z,28.65
2019-04-20T00:32:13.430Z,29.42
2019-04-20T00:34:37.198Z,28.07
2019-04-20T00:37:05.194Z,27.45
2019-04-20T00:39:36.130Z,28.90
2019-04-20T00:42:10.725Z,28.02
2019-04-20T00:44:39.578Z,28.98
2019-04-20T00:47:21.898Z,29.57
2019-04-20T00:49:55.039Z,28.95
2019-04-20T00:52:27.469Z,28.92
2019-04-20T00:54:43.682Z,31.20
2019-04-20T00:57:25.909Z,31.27
2019-04-20T01:00:09.385Z,29.85
2019-04-20T01:02:29.921Z,29.67
2019-04-20T01:05:05.091Z,29.32
2019-04-20T01:07:38.606Z,27.90
2019-04-20T01:10:05.249Z,30.10
2019-04-20T01:12:38.434Z,31.40
2019-04-20T01:15:11.876Z,31.93
2019-04-20T01:17:41.968Z,31.75
2019-04-20T01:20:12.852Z,32.03
2019-04-20T01:22:48.409Z,31.70
2019-04-20T01:25:22.119Z,31.12
2019-04-20T01:28:04.589Z,30.57
2019-04-20T01:30:25.229Z,30.32
2019-04-20T01:33:08.904Z,30.37
2019-04-20T01:35:39.184Z,30.10
2019-04-20T01:38:12.635Z,30.05
2019-04-20T01:40:25.366Z,30.08
2019-04-20T01:42:55.460Z,30.10
2019-04-20T01:45:29.375Z,31.33
2019-04-20T01:47:59.549Z,30.82
2019-04-20T01:50:33.063Z,30.40
2019-04-20T01:53:11.551Z,31.48
2019-04-20T01:55:45.489Z,30.12
2019-04-20T01:58:36.379Z,31.02
2019-04-20T02:00:48.119Z,29.85
2019-04-20T02:03:43.358Z,31.60
2019-04-20T02:06:15.116Z,31.50
2019-04-20T02:08:42.627Z,31.25
2019-04-20T02:11:18.666Z,32.28
2019-04-20T02:13:51.017Z,30.88
2019-04-20T02:16:27.302Z,31.10
2019-04-20T02:19:05.311Z,31.80
2019-04-20T02:21:34.292Z,30.52
2019-04-20T02:23:57.271Z,32.15
2019-04-20T02:26:22.340Z,33.23
2019-04-20T02:29:18.585Z,31.48
2019-04-20T02:32:08.513Z,32.23
2019-04-20T02:37:13.935Z,31.40
2019-04-20T02:39:46.312Z,31.27
2019-04-20T02:44:53.028Z,32.45
2019-04-20T02:47:28.025Z,31.87
2019-04-20T02:49:50.833Z,31.37
2019-04-20T02:52:24.980Z,32.50
2019-04-20T02:54:58.496Z,32.05
2019-04-20T03:02:14.735Z,33.75
2019-04-20T03:04:37.035Z,33.63
2019-04-20T03:07:16.464Z,31.77
2019-04-20T03:09:51.482Z,31.40
2019-04-20T03:12:28.927Z,32.75
2019-04-20T03:14:53.978Z,31.77
2019-04-20T03:17:32.807Z,31.60
2019-04-20T03:19:55.052Z,32.38
2019-04-20T03:22:48.361Z,32.05
2019-04-20T03:25:06.915Z,32.78
2019-04-20T03:27:33.114Z,32.83
2019-04-20T03:31:00.973Z,32.85
2019-04-20T03:35:22.402Z,32.83
2019-04-20T03:37:52.480Z,32.60
2019-04-20T03:40:22.784Z,32.38
2019-04-20T03:42:37.766Z,32.60
2019-04-20T03:45:14.040Z,33.42
2019-04-20T03:47:54.355Z,33.25
2019-04-20T03:50:35.589Z,31.55
2019-04-20T03:53:14.188Z,32.30
2019-04-20T03:55:40.834Z,33.20
2019-04-20T03:58:24.248Z,32.80
2019-04-20T04:00:57.276Z,33.55
2019-04-20T04:03:44.105Z,33.00
2019-04-20T04:06:10.108Z,34.58
2019-04-20T04:08:35.807Z,33.33
2019-04-20T04:11:15.968Z,34.20
2019-04-20T04:13:31.352Z,34.03
2019-04-20T04:16:06.905Z,32.40
2019-04-20T04:18:38.640Z,34.18
2019-04-20T04:21:10.079Z,33.63
2019-04-20T04:23:56.242Z,33.28
2019-04-20T04:26:26.093Z,34.23
2019-04-20T04:29:07.070Z,34.30
2019-04-20T04:31:33.798Z,33.63
2019-04-20T04:34:04.902Z,33.23
2019-04-20T04:36:30.661Z,32.85
2019-04-20T04:39:08.871Z,32.93
2019-04-20T04:41:39.860Z,32.85
2019-04-20T04:44:09.637Z,32.58
2019-04-20T04:46:24.778Z,33.25
2019-04-20T04:49:06.864Z,33.65
2019-04-20T04:51:38.500Z,34.03
2019-04-20T04:54:10.095Z,33.28
2019-04-20T04:56:30.806Z,33.20
2019-04-20T04:59:02.367Z,32.95
2019-04-20T05:01:34.428Z,33.30
2019-04-20T05:06:48.066Z,32.88
2019-04-20T05:09:10.432Z,34.23
2019-04-20T05:11:38.678Z,33.92
2019-04-20T05:14:14.993Z,34.23
2019-04-20T05:16:54.634Z,34.48
2019-04-20T05:19:29.516Z,34.53
2019-04-20T05:22:10.868Z,33.40
2019-04-20T05:24:42.691Z,33.15
2019-04-20T05:27:37.578Z,32.95
2019-04-20T05:29:47.154Z,32.50
2019-04-20T05:32:24.870Z,31.82
2019-04-20T05:35:12.294Z,31.30
2019-04-20T05:37:56.785Z,30.20
2019-04-20T05:40:20.581Z,28.83
2019-04-20T05:42:52.453Z,30.17
2019-04-20T05:45:26.082Z,31.50
2019-04-20T05:47:53.668Z,31.12
2019-04-20T05:50:31.665Z,31.82
2019-04-20T05:53:07.446Z,32.08
2019-04-20T05:55:41.619Z,31.37
2019-04-20T05:58:13.951Z,30.35
2019-04-20T06:00:47.667Z,28.42
2019-04-20T06:03:13.010Z,29.65
2019-04-20T06:05:52.287Z,29.52
2019-04-20T06:08:29.048Z,29.63
2019-04-20T06:10:50.553Z,30.85
2019-04-20T06:13:33.673Z,29.98
2019-04-20T06:16:07.623Z,30.82
2019-04-20T06:19:10.237Z,29.25
2019-04-20T06:21:52.509Z,29.42
2019-04-20T06:24:15.652Z,27.67
2019-04-20T06:26:51.524Z,28.00
2019-04-20T06:29:05.107Z,27.87
2019-04-20T06:31:40.943Z,28.23
2019-04-20T06:34:30.134Z,28.32
2019-04-20T06:37:05.821Z,29.10
2019-04-20T06:39:50.629Z,28.77
2019-04-20T06:44:41.290Z,30.12
2019-04-20T06:47:27.363Z,28.50
2019-04-20T06:50:00.430Z,29.63
2019-04-20T06:52:28.564Z,29.20
2019-04-20T06:55:11.120Z,29.75
2019-04-20T06:57:47.625Z,29.42
2019-04-20T07:05:22.294Z,29.95
2019-04-20T07:07:54.740Z,30.30
2019-04-20T07:10:44.567Z,30.48
2019-04-20T07:12:55.213Z,30.72
2019-04-20T07:15:25.047Z,30.77
2019-04-20T07:18:02.774Z,30.00
2019-04-20T07:20:54.086Z,29.90
2019-04-20T07:23:23.800Z,28.25
2019-04-20T07:25:47.614Z,29.07
2019-04-20T07:28:19.713Z,29.60
2019-04-20T07:30:50.792Z,29.60
2019-04-20T07:33:24.616Z,29.50
2019-04-20T07:35:52.343Z,29.32
2019-04-20T07:38:31.007Z,29.82
2019-04-20T07:40:57.372Z,30.05
2019-04-20T07:43:25.582Z,28.80
2019-04-20T07:46:03.052Z,27.87
2019-04-20T07:48:30.525Z,28.92
2019-04-20T07:50:55.600Z,29.85
2019-04-20T07:53:29.417Z,28.52
2019-04-20T07:56:08.489Z,29.80
2019-04-20T07:58:29.537Z,28.98
2019-04-20T08:01:17.866Z,29.35
2019-04-20T08:03:44.252Z,28.57
2019-04-20T08:06:21.283Z,27.93
2019-04-20T08:09:04.062Z,28.65
2019-04-20T08:11:47.312Z,27.87
2019-04-20T08:14:13.334Z,29.05
2019-04-20T08:16:51.754Z,30.32
2019-04-20T08:19:10.100Z,28.40
2019-04-20T08:21:47.480Z,28.10
2019-04-20T08:24:13.189Z,28.80
2019-04-20T08:26:35.982Z,28.70
2019-04-20T08:29:29.089Z,25.95
2019-04-20T08:32:26.518Z,26.80
2019-04-20T08:34:59.523Z,26.10
2019-04-20T08:37:29.283Z,24.70
2019-04-20T08:40:10.285Z,24.65
2019-04-20T08:42:38.006Z,23.85
2019-04-20T08:45:07.214Z,24.55
2019-04-20T08:47:48.671Z,24.15
2019-04-20T08:50:16.797Z,24.02
2019-04-20T08:53:03.585Z,22.10
2019-04-20T08:55:16.476Z,25.97
2019-04-20T08:57:29.302Z,25.10
2019-04-20T09:00:01.491Z,25.30
2019-04-20T09:02:32.679Z,22.98
2019-04-20T09:05:11.703Z,22.00
2019-04-20T09:07:47.278Z,21.48
2019-04-20T09:10:34.391Z,22.37
2019-04-20T09:12:57.293Z,22.90
2019-04-20T09:15:16.842Z,22.17
2019-04-20T09:18:13.815Z,22.42
2019-04-20T09:20:47.542Z,21.68
2019-04-20T09:23:27.128Z,21.37
2019-04-20T09:28:30.903Z,20.02
2019-04-20T09:31:10.812Z,20.68
2019-04-20T09:33:46.045Z,20.17
2019-04-20T09:36:20.355Z,20.57
2019-04-20T09:39:04.821Z,18.62
2019-04-20T09:41:47.145Z,21.35
2019-04-20T09:44:00.448Z,19.95
2019-04-20T09:46:39.326Z,18.70
2019-04-20T09:49:18.062Z,19.85
2019-04-20T09:51:54.091Z,19.10
2019-04-20T09:54:26.731Z,20.35
2019-04-20T09:57:07.615Z,20.27
2019-04-20T09:59:30.623Z,20.48
2019-04-20T10:01:47.593Z,20.50
2019-04-20T10:04:15.663Z,20.80
2019-04-20T10:06:45.620Z,20.43
2019-04-20T10:09:22.394Z,20.30
2019-04-20T10:11:49.355Z,20.70
2019-04-20T10:14:20.129Z,19.90
2019-04-20T10:16:51.844Z,20.60
2019-04-20T10:19:28.913Z,21.02
2019-04-20T10:21:54.886Z,20.60
2019-04-20T10:24:26.487Z,20.35
2019-04-20T10:26:58.646Z,20.82
2019-04-20T10:29:28.578Z,19.77
2019-04-20T10:32:02.637Z,20.20
2019-04-20T10:34:30.662Z,20.37
2019-04-20T10:37:03.784Z,20.35
2019-04-20T10:39:36.266Z,19.35
2019-04-20T10:42:07.987Z,19.00
2019-04-20T10:44:38.922Z,18.23
2019-04-20T10:47:09.205Z,18.07
2019-04-20T10:49:39.258Z,18.40
2019-04-20T10:52:09.704Z,17.62
2019-04-20T10:54:40.620Z,16.97
2019-04-20T10:57:11.328Z,16.87
2019-04-20T10:59:41.546Z,17.35
2019-04-20T11:02:12.107Z,16.45
2019-04-20T11:04:42.716Z,16.20
2019-04-20T11:07:14.563Z,17.35
2019-04-20T11:09:44.834Z,15.60
2019-04-20T11:12:16.528Z,15.15
2019-04-20T11:14:48.012Z,14.40
2019-04-20T11:17:18.254Z,14.45
2019-04-20T11:19:49.490Z,14.13
2019-04-20T11:22:20.088Z,14.38
2019-04-20T11:24:50.407Z,15.05
2019-04-20T11:27:20.495Z,13.48
2019-04-20T11:29:51.849Z,14.03
2019-04-20T11:32:24.117Z,12.80
2019-04-20T11:34:56.384Z,12.03
2019-04-20T11:37:26.835Z,12.82
2019-04-20T11:39:57.071Z,11.80
2019-04-20T11:42:28.231Z,11.08
2019-04-20T11:44:58.407Z,10.25
2019-04-20T11:47:29.645Z,10.15
2019-04-20T11:49:59.623Z,11.50
2019-04-20T11:52:33.233Z,11.38
2019-04-20T11:55:02.296Z,10.35
2019-04-20T11:57:33.438Z,11.00
2019-04-20T12:00:05.594Z,11.63
2019-04-20T12:02:44.368Z,9.65
2019-04-20T12:05:24.649Z,11.95
2019-04-20T12:07:58.667Z,9.95
2019-04-20T12:10:30.065Z,9.73
2019-04-20T12:13:01.762Z,12.30
2019-04-20T12:15:35.033Z,12.53
2019-04-20T12:18:05.403Z,13.75
2019-04-20T12:20:36.569Z,12.98
2019-04-20T12:23:08.428Z,12.65
2019-04-20T12:25:40.930Z,11.68
2019-04-20T12:28:11.595Z,12.28
2019-04-20T12:30:42.009Z,11.53
2019-04-20T12:33:11.829Z,10.60
2019-04-20T12:35:42.679Z,11.65
2019-04-20T12:38:12.934Z,11.63
2019-04-20T12:40:44.046Z,10.40
2019-04-20T12:43:15.133Z,10.93
2019-04-20T12:45:45.857Z,14.63
2019-04-20T12:48:17.523Z,16.52
2019-04-20T12:50:47.906Z,14.73
2019-04-20T12:53:18.185Z,13.70
2019-04-20T12:55:48.437Z,14.10
2019-04-20T12:58:18.705Z,12.40
2019-04-20T13:00:50.533Z,12.63
2019-04-20T13:03:21.441Z,12.43
2019-04-20T13:05:52.160Z,12.80
2019-04-20T13:08:30.640Z,10.50
2019-04-20T13:10:58.376Z,10.80
2019-04-20T13:13:36.615Z,10.75
2019-04-20T13:16:12.324Z,11.53
2019-04-20T13:18:47.714Z,13.30
2019-04-20T13:21:19.010Z,11.35
2019-04-20T13:23:51.010Z,12.05
2019-04-20T13:26:22.662Z,12.68
2019-04-20T13:28:55.005Z,9.28
2019-04-20T13:31:26.111Z,10.40
2019-04-20T13:33:57.209Z,9.35
2019-04-20T13:36:28.475Z,9.00
2019-04-20T13:38:59.878Z,9.33
2019-04-20T13:41:31.605Z,9.55
2019-04-20T13:44:03.658Z,8.63
2019-04-20T13:46:34.552Z,8.80
2019-04-20T13:49:04.934Z,8.78
2019-04-20T13:51:34.995Z,9.30
2019-04-20T13:54:07.438Z,8.68
2019-04-20T13:56:37.621Z,9.78
2019-04-20T13:59:28.315Z,9.03
2019-04-20T14:02:08.859Z,8.65
2019-04-20T14:04:41.360Z,8.53
2019-04-20T14:07:14.122Z,8.68
2019-04-20T14:09:43.618Z,9.95
2019-04-20T14:12:23.276Z,10.50
2019-04-20T14:14:46.926Z,11.60
2019-04-20T14:17:19.090Z,10.35
2019-04-20T14:19:50.537Z,10.80
2019-04-20T14:22:21.164Z,9.18
2019-04-20T14:24:51.456Z,8.80
2019-04-20T14:27:21.490Z,8.63
2019-04-20T14:29:52.957Z,8.43
2019-04-20T14:32:22.953Z,8.58
2019-04-20T14:34:54.458Z,9.05
2019-04-20T14:37:24.707Z,9.25
2019-04-20T14:39:56.430Z,9.60
2019-04-20T14:42:37.361Z,9.20
2019-04-20T14:44:59.706Z,8.95
2019-04-20T14:47:31.856Z,8.78
2019-04-20T14:50:03.216Z,9.83
2019-04-20T14:52:33.772Z,9.45
2019-04-20T14:55:07.739Z,10.35
2019-04-20T14:57:37.677Z,9.85
2019-04-20T15:00:23.544Z,10.28
2019-04-20T15:02:56.255Z,9.38
2019-04-20T15:05:26.390Z,9.93
2019-04-20T15:07:58.566Z,8.80
2019-04-20T15:10:28.983Z,9.80
2019-04-20T15:13:02.408Z,9.88
2019-04-20T15:15:30.454Z,9.80
2019-04-20T15:18:05.912Z,9.93
2019-04-20T15:20:37.499Z,8.58
2019-04-20T15:23:09.600Z,9.83
2019-04-20T15:25:40.261Z,9.20
2019-04-20T15:28:10.469Z,9.35
2019-04-20T15:30:40.523Z,10.43
2019-04-20T15:33:10.877Z,9.58
2019-04-20T15:35:41.932Z,10.00
2019-04-20T15:38:13.103Z,9.90
2019-04-20T15:40:43.205Z,10.65
2019-04-20T15:43:17.405Z,11.30
2019-04-20T15:45:45.425Z,9.88
2019-04-20T15:48:16.341Z,9.55
2019-04-20T15:50:47.719Z,9.75
2019-04-20T15:53:17.715Z,9.93
2019-04-20T15:55:49.199Z,10.18
2019-04-20T15:58:20.670Z,9.13
2019-04-20T16:00:52.611Z,10.50
2019-04-20T16:03:30.315Z,10.78
2019-04-20T16:06:05.437Z,11.30
2019-04-20T16:08:39.657Z,10.38
2019-04-20T16:11:11.071Z,12.35
2019-04-20T16:13:45.779Z,11.93
2019-04-20T16:16:13.982Z,11.90
2019-04-20T16:18:45.283Z,11.65
2019-04-20T16:21:20.837Z,11.22
2019-04-20T16:23:48.670Z,11.05
2019-04-20T16:26:21.768Z,12.30
2019-04-20T16:28:53.504Z,11.95
2019-04-20T16:31:24.531Z,13.25
2019-04-20T16:33:57.443Z,11.48
2019-04-20T16:36:28.325Z,12.43
2019-04-20T16:38:59.515Z,11.75
2019-04-20T16:41:30.632Z,11.43
2019-04-20T16:44:00.906Z,12.50
2019-04-20T16:46:32.034Z,11.20
2019-04-20T16:49:03.031Z,12.58
2019-04-20T16:51:34.611Z,12.90
2019-04-20T16:54:05.786Z,11.18
2019-04-20T16:56:37.032Z,12.05
2019-04-20T16:59:11.593Z,11.53
2019-04-20T17:01:40.239Z,12.50
2019-04-20T17:04:15.480Z,12.28
2019-04-20T17:07:02.426Z,12.37
2019-04-20T17:09:33.657Z,12.45
2019-04-20T17:12:03.867Z,12.78
2019-04-20T17:14:33.878Z,13.28
2019-04-20T17:17:03.940Z,12.43
2019-04-20T17:19:33.928Z,12.70
2019-04-20T17:22:05.507Z,13.85
2019-04-20T17:24:35.789Z,12.23
2019-04-20T17:27:17.099Z,12.33
2019-04-20T17:30:07.878Z,13.30
2019-04-20T17:32:39.232Z,13.48
2019-04-20T17:35:24.873Z,13.03
2019-04-20T17:37:43.771Z,12.90
2019-04-20T17:40:35.330Z,14.63
2019-04-20T17:42:56.671Z,12.78
2019-04-20T17:45:28.592Z,12.13
2019-04-20T17:48:04.470Z,13.48
2019-04-20T17:50:38.672Z,13.48
2019-04-20T17:53:05.164Z,13.30
2019-04-20T17:55:39.482Z,12.98
2019-04-20T17:58:11.041Z,11.97
2019-04-20T18:00:57.792Z,11.90
2019-04-20T18:04:04.564Z,13.30
2019-04-20T18:06:19.897Z,12.43
2019-04-20T18:08:50.580Z,12.68
2019-04-20T18:11:10.072Z,12.95
2019-04-20T18:13:36.092Z,12.98
2019-04-20T18:16:29.569Z,12.45
2019-04-20T18:19:00.289Z,11.97
2019-04-20T18:21:24.451Z,10.78
2019-04-20T18:23:54.487Z,10.72
2019-04-20T18:26:45.438Z,10.82
2019-04-20T18:29:15.133Z,10.63
2019-04-20T18:31:35.398Z,9.85
2019-04-20T18:34:13.174Z,11.28
2019-04-20T18:36:43.913Z,11.57
2019-04-20T18:39:13.688Z,11.60
2019-04-20T18:41:48.291Z,11.50
2019-04-20T18:44:14.819Z,13.50
2019-04-20T18:47:09.550Z,13.78
2019-04-20T18:49:33.593Z,15.25
2019-04-20T18:51:49.036Z,15.05
2019-04-20T18:54:24.301Z,15.50
2019-04-20T18:56:52.950Z,14.33
2019-04-20T18:59:23.423Z,14.73
2019-04-20T19:01:55.003Z,13.70
2019-04-20T19:04:25.920Z,12.70
2019-04-20T19:06:56.245Z,14.98
2019-04-20T19:09:30.442Z,14.58
2019-04-20T19:12:02.880Z,15.15
2019-04-20T19:14:51.705Z,15.40
2019-04-20T19:17:41.942Z,16.40
2019-04-20T19:20:02.339Z,14.85
2019-04-20T19:22:35.515Z,15.58
2019-04-20T19:25:10.004Z,16.40
2019-04-20T19:27:43.436Z,16.75
2019-04-20T19:30:21.186Z,20.12
2019-04-20T19:33:01.014Z,20.08
2019-04-20T19:35:25.724Z,19.95
2019-04-20T19:37:56.965Z,19.50
2019-04-20T19:40:33.803Z,17.92
2019-04-20T19:43:03.531Z,17.75
2019-04-20T19:46:06.615Z,18.67
2019-04-20T19:48:09.608Z,18.62
2019-04-20T19:50:53.150Z,18.37
2019-04-20T19:53:21.171Z,17.27
2019-04-20T19:55:46.045Z,16.82
2019-04-20T19:58:13.909Z,16.05
2019-04-20T20:00:53.456Z,16.32
2019-04-20T20:03:22.062Z,16.25
2019-04-20T20:05:54.776Z,15.08
2019-04-20T20:08:28.139Z,15.32
2019-04-20T20:10:59.237Z,14.25
2019-04-20T20:13:36.246Z,14.50
2019-04-20T20:16:06.017Z,14.68
2019-04-20T20:18:48.205Z,15.20
2019-04-20T20:21:17.603Z,14.98
2019-04-20T20:23:34.212Z,16.02
2019-04-20T20:26:07.247Z,14.47
2019-04-20T20:28:45.441Z,14.30
2019-04-20T20:31:22.352Z,15.10
2019-04-20T20:33:56.490Z,15.32
2019-04-20T20:36:15.733Z,16.62
2019-04-20T20:38:50.691Z,15.70
2019-04-20T20:41:26.205Z,16.27
2019-04-20T20:44:01.116Z,15.03
2019-04-20T20:46:30.656Z,16.80
2019-04-20T20:49:11.740Z,16.00
2019-04-20T20:51:48.554Z,15.63
2019-04-20T20:54:06.840Z,16.90
2019-04-20T20:56:30.899Z,16.75
2019-04-20T20:59:07.220Z,15.83
2019-04-20T21:01:41.412Z,15.25
2019-04-20T21:04:02.555Z,16.95
2019-04-20T21:06:33.198Z,16.90
2019-04-20T21:09:05.013Z,16.32
2019-04-20T21:11:36.369Z,15.70
2019-04-20T21:14:06.834Z,15.35
2019-04-20T21:16:46.600Z,15.55
2019-04-20T21:19:24.550Z,15.30
2019-04-20T21:21:49.961Z,16.32
2019-04-20T21:24:27.285Z,14.78
2019-04-20T21:27:01.620Z,16.85
2019-04-20T21:29:35.910Z,15.85
2019-04-20T21:32:08.154Z,15.30
2019-04-20T21:34:35.459Z,15.90
2019-04-20T21:37:10.708Z,16.50
2019-04-20T21:39:44.132Z,16.35
2019-04-20T21:42:14.382Z,15.08
2019-04-20T21:44:42.933Z,15.88
2019-04-20T21:47:15.656Z,14.55
2019-04-20T21:49:54.101Z,16.15
2019-04-20T21:52:23.346Z,16.70
2019-04-20T21:54:48.207Z,15.85
2019-04-20T21:57:18.280Z,16.62
2019-04-20T21:59:51.917Z,16.02
2019-04-20T22:02:25.289Z,16.52
2019-04-20T22:04:51.402Z,16.12
2019-04-20T22:07:22.805Z,15.88
2019-04-20T22:09:53.639Z,16.57
2019-04-20T22:12:28.396Z,16.45
2019-04-20T22:15:02.963Z,16.65
2019-04-20T22:17:32.158Z,18.05
2019-04-20T22:20:12.062Z,16.35
2019-04-20T22:22:46.873Z,16.65
2019-04-20T22:25:23.433Z,16.65
2019-04-20T22:27:35.178Z,16.60
2019-04-20T22:30:08.235Z,18.65
2019-04-20T22:32:44.212Z,18.48
2019-04-20T22:35:13.966Z,18.07
2019-04-20T22:37:43.462Z,16.67
2019-04-20T22:40:20.492Z,17.92
2019-04-20T22:42:48.639Z,18.55
2019-04-20T22:45:17.352Z,19.75
2019-04-20T22:47:48.150Z,19.73
2019-04-20T22:50:35.791Z,19.15
2019-04-20T22:52:59.306Z,19.67
2019-04-20T22:55:47.346Z,19.73
2019-04-20T22:58:01.285Z,18.57
2019-04-20T23:00:35.373Z,18.77
2019-04-20T23:02:56.730Z,20.00
2019-04-20T23:05:40.606Z,17.95
2019-04-20T23:08:10.976Z,19.48
2019-04-20T23:10:44.788Z,19.23
2019-04-20T23:13:13.736Z,20.35
2019-04-20T23:15:50.025Z,19.02
2019-04-20T23:18:16.044Z,19.87
2019-04-20T23:20:45.958Z,19.70
2019-04-20T23:23:20.673Z,20.25
2019-04-20T23:25:47.622Z,19.77
2019-04-20T23:28:19.698Z,19.25
2019-04-20T23:30:54.310Z,18.62
2019-04-20T23:33:22.057Z,18.65
2019-04-20T23:35:56.602Z,18.42
2019-04-20T23:38:24.777Z,18.80
2019-04-20T23:40:55.591Z,19.62
2019-04-20T23:43:30.468Z,19.05
2019-04-20T23:46:17.250Z,18.20
2019-04-20T23:48:46.512Z,18.02
2019-04-20T23:51:36.762Z,17.95
2019-04-20T23:53:55.310Z,17.82
2019-04-20T23:56:22.047Z,17.60
2019-04-20T23:58:53.462Z,17.55
